Time;durP1;ratioP1;P1;durP2;ratioP2;P2;SDS_P1;SDS_P2;PMS_P1;PMS_P2;Temp;Humidity;BMP_temperature;BMP_pressure;BME280_temperature;BME280_humidity;BME280_pressure;Samples;Min_cycle;Max_cycle;Signal;HPM_P1;HPM_P2
2022/02/13 00:01:45;;;;;;;25.67;11.65;;;;;;;0.18;86.19;101732.09;5094553;28;20020;-79
2022/02/13 00:04:11;;;;;;;26.30;12.07;;;;;;;0.16;86.31;101729.41;5094732;28;20035;-79
2022/02/13 00:06:37;;;;;;;26.77;11.45;;;;;;;0.13;86.26;101738.72;5094656;28;20032;-79
2022/02/13 00:09:02;;;;;;;26.20;11.65;;;;;;;0.11;86.70;101719.53;5094659;28;20478;-81
2022/02/13 00:11:28;;;;;;;25.00;11.13;;;;;;;0.08;87.03;101719.34;5094588;28;20132;-79
2022/02/13 00:13:53;;;;;;;25.88;11.70;;;;;;;0.01;87.69;101725.88;5090236;28;20020;-78
2022/02/13 00:16:18;;;;;;;26.83;11.98;;;;;;;0.01;88.42;101720.66;5094542;28;20032;-79
2022/02/13 00:18:44;;;;;;;26.75;12.27;;;;;;;-0.04;88.73;101724.72;5094342;28;20379;-80
2022/02/13 00:21:10;;;;;;;27.25;12.57;;;;;;;-0.09;89.10;101721.78;5094073;28;20024;-80
2022/02/13 00:23:36;;;;;;;27.33;12.85;;;;;;;-0.10;89.68;101720.03;5094131;28;20035;-78
2022/02/13 00:26:01;;;;;;;27.92;12.32;;;;;;;-0.09;89.89;101729.59;5094537;28;20035;-78
2022/02/13 00:28:26;;;;;;;28.50;13.25;;;;;;;-0.14;90.66;101727.53;5094325;28;20081;-78
2022/02/13 00:30:53;;;;;;;25.98;12.07;;;;;;;-0.20;90.91;101725.47;5093862;28;20028;-78
2022/02/13 00:33:18;;;;;;;27.17;12.32;;;;;;;-0.23;91.54;101730.47;5093990;28;20070;-78
2022/02/13 00:35:45;;;;;;;25.67;12.02;;;;;;;-0.24;91.58;101723.47;5093912;28;20109;-78
2022/02/13 00:38:11;;;;;;;27.42;11.88;;;;;;;-0.32;92.28;101707.41;5093801;28;20024;-79
2022/02/13 00:40:37;;;;;;;26.88;12.32;;;;;;;-0.29;92.42;101717.06;5093983;28;20028;-78
2022/02/13 00:43:02;;;;;;;27.15;12.15;;;;;;;-0.38;93.31;101707.00;5093709;28;20500;-78
2022/02/13 00:45:27;;;;;;;25.25;11.77;;;;;;;-0.32;93.33;101707.41;5094093;28;20538;-79
2022/02/13 00:47:53;;;;;;;25.23;11.95;;;;;;;-0.35;93.68;101707.19;5093677;28;20031;-78
2022/02/13 00:50:18;;;;;;;26.55;12.30;;;;;;;-0.42;94.38;101703.34;5093815;28;20032;-79
2022/02/13 00:52:43;;;;;;;26.65;12.13;;;;;;;-0.46;94.88;101700.44;5092950;28;20053;-78
2022/02/13 00:55:09;;;;;;;25.23;11.23;;;;;;;-0.42;94.99;101698.13;5093456;28;20027;-78
2022/02/13 00:57:34;;;;;;;26.75;11.70;;;;;;;-0.41;95.09;101683.44;5093518;28;20024;-79
2022/02/13 01:00:00;;;;;;;26.25;12.20;;;;;;;-0.36;94.58;101685.50;5094017;28;20020;-78
2022/02/13 01:02:25;;;;;;;27.60;12.27;;;;;;;-0.41;95.14;101689.53;5093581;28;20024;-79
2022/02/13 01:04:50;;;;;;;27.60;12.23;;;;;;;-0.49;96.27;101680.38;5092012;28;20375;-79
2022/02/13 01:07:16;;;;;;;27.08;12.18;;;;;;;-0.47;96.08;101685.66;5093499;28;20058;-79
2022/02/13 01:09:41;;;;;;;27.98;12.68;;;;;;;-0.50;96.70;101683.75;5093451;28;20024;-78
2022/02/13 01:12:07;;;;;;;26.33;11.82;;;;;;;-0.58;96.77;101678.09;5093212;28;20027;-79
2022/02/13 01:14:33;;;;;;;28.15;12.45;;;;;;;-0.57;98.02;101673.78;5093470;28;20024;-78
2022/02/13 01:16:58;;;;;;;30.20;12.50;;;;;;;-0.59;97.88;101676.28;5093512;28;20040;-77
2022/02/13 01:19:23;;;;;;;27.70;12.65;;;;;;;-0.61;98.49;101671.78;5093174;28;20032;-78
2022/02/13 01:21:49;;;;;;;27.05;12.25;;;;;;;-0.63;99.28;101665.63;5093240;28;20035;-77
2022/02/13 01:24:14;;;;;;;26.52;11.63;;;;;;;-0.63;99.08;101663.00;5092943;28;20008;-78
2022/02/13 01:26:39;;;;;;;25.92;11.25;;;;;;;-0.63;99.35;101655.22;5093408;28;20020;-77
2022/02/13 01:29:05;;;;;;;26.75;12.23;;;;;;;-0.62;99.17;101657.03;5093083;28;20091;-77
2022/02/13 01:31:30;;;;;;;26.65;11.55;;;;;;;-0.64;99.33;101650.81;5090699;28;20067;-80
2022/02/13 01:33:56;;;;;;;26.02;11.55;;;;;;;-0.56;98.78;101644.41;5093264;28;20060;-78
2022/02/13 01:36:21;;;;;;;26.13;11.73;;;;;;;-0.52;98.49;101643.81;5093196;28;20524;-79
2022/02/13 01:38:46;;;;;;;26.33;11.30;;;;;;;-0.47;98.19;101637.19;5093127;28;20387;-79
2022/02/13 01:41:12;;;;;;;26.52;11.90;;;;;;;-0.51;98.72;101632.63;5092886;28;20102;-78
2022/02/13 01:43:37;;;;;;;26.83;11.63;;;;;;;-0.50;98.20;101631.78;5092656;28;20024;-78
2022/02/13 01:46:03;;;;;;;26.88;11.60;;;;;;;-0.49;98.13;101628.41;5092729;28;20120;-78
2022/02/13 01:48:30;;;;;;;26.65;11.73;;;;;;;-0.55;98.92;101623.72;5093113;28;20023;-79
2022/02/13 01:50:56;;;;;;;27.42;11.55;;;;;;;-0.54;99.04;101612.53;5092693;28;20035;-78
2022/02/13 01:53:22;;;;;;;25.73;11.88;;;;;;;-0.49;98.50;101615.41;5092717;28;20482;-79
2022/02/13 01:55:48;;;;;;;24.02;11.55;;;;;;;-0.58;98.66;101607.97;5092702;28;20031;-79
2022/02/13 01:58:14;;;;;;;25.75;11.75;;;;;;;-0.61;99.27;101599.06;5092784;28;20042;-78
2022/02/13 02:00:40;;;;;;;27.23;12.40;;;;;;;-0.48;97.75;101599.03;5092704;28;20111;-77
2022/02/13 02:03:05;;;;;;;26.02;11.75;;;;;;;-0.58;98.63;101596.69;5092765;28;20078;-77
2022/02/13 02:05:31;;;;;;;28.25;11.98;;;;;;;-0.63;98.73;101583.38;5096750;28;20106;-78
2022/02/13 02:07:56;;;;;;;25.88;12.15;;;;;;;-0.62;98.90;101594.69;5097000;28;20402;-77
2022/02/13 02:10:23;;;;;;;26.98;11.73;;;;;;;-0.67;99.39;101585.69;5096573;28;20036;-78
2022/02/13 02:12:49;;;;;;;25.40;11.75;;;;;;;-0.73;99.55;101579.34;5096606;28;20035;-77
2022/02/13 02:15:14;;;;;;;28.23;11.57;;;;;;;-0.73;99.74;101579.34;5096767;28;20032;-78
2022/02/13 02:17:40;;;;;;;27.30;11.85;;;;;;;-0.71;99.65;101577.72;5096555;28;20024;-77
2022/02/13 02:20:06;;;;;;;25.95;11.77;;;;;;;-0.77;99.84;101582.56;5096532;28;20024;-78
2022/02/13 02:22:31;;;;;;;25.90;11.88;;;;;;;-0.80;100.00;101571.97;5096692;28;20070;-77
2022/02/13 02:24:56;;;;;;;24.65;11.63;;;;;;;-0.76;99.67;101573.97;5096499;28;20486;-77
2022/02/13 02:27:22;;;;;;;26.02;10.73;;;;;;;-0.78;99.84;101570.34;5096229;28;20032;-77
2022/02/13 02:29:47;;;;;;;24.88;11.13;;;;;;;-0.79;99.89;101573.75;5096441;28;20080;-77
2022/02/13 02:32:12;;;;;;;24.38;11.70;;;;;;;-0.80;99.81;101573.66;5096090;28;20051;-77
2022/02/13 02:34:39;;;;;;;25.45;11.18;;;;;;;-0.77;99.81;101569.56;5096595;28;20055;-77
2022/02/13 02:37:08;;;;;;;26.02;11.20;;;;;;;-0.86;100.00;101568.09;5096447;28;20046;-77
2022/02/13 02:39:35;;;;;;;25.58;11.45;;;;;;;-0.93;100.00;101562.53;5096280;28;20024;-77
2022/02/13 02:42:01;;;;;;;25.13;11.50;;;;;;;-1.01;100.00;101542.97;5095934;28;20028;-78
2022/02/13 02:44:27;;;;;;;25.17;10.95;;;;;;;-1.04;100.00;101534.09;5096571;28;20030;-76
2022/02/13 02:46:52;;;;;;;25.60;11.70;;;;;;;-1.01;100.00;101534.28;5096099;28;20024;-76
2022/02/13 02:49:17;;;;;;;25.08;11.85;;;;;;;-0.99;100.00;101525.81;5095923;28;20035;-76
2022/02/13 02:51:43;;;;;;;24.27;10.85;;;;;;;-1.02;100.00;101516.91;5094045;28;20093;-76
2022/02/13 02:54:08;;;;;;;24.20;10.65;;;;;;;-1.03;100.00;101512.53;5095903;28;20032;-76
2022/02/13 02:56:34;;;;;;;24.85;10.35;;;;;;;-1.00;100.00;101515.34;5095927;28;20413;-76
2022/02/13 02:58:59;;;;;;;24.50;10.75;;;;;;;-0.90;100.00;101513.38;5095918;28;20024;-76
2022/02/13 03:01:24;;;;;;;25.42;10.25;;;;;;;-0.86;100.00;101508.38;5095747;28;20387;-75
2022/02/13 03:03:50;;;;;;;23.55;10.70;;;;;;;-0.81;100.00;101514.75;5094658;28;20052;-75
2022/02/13 03:06:15;;;;;;;25.55;11.43;;;;;;;-0.74;100.00;101510.03;5095665;28;20028;-75
2022/02/13 03:08:40;;;;;;;23.77;10.52;;;;;;;-0.81;100.00;101497.47;5095614;28;20020;-76
2022/02/13 03:11:06;;;;;;;23.20;10.10;;;;;;;-0.73;99.77;101491.06;5095688;28;20517;-78
2022/02/13 03:13:31;;;;;;;23.63;10.10;;;;;;;-0.81;100.00;101488.81;5095429;28;20059;-76
2022/02/13 03:15:57;;;;;;;24.48;10.85;;;;;;;-0.80;100.00;101486.28;5094913;28;20085;-78
2022/02/13 03:18:22;;;;;;;26.00;10.85;;;;;;;-0.79;100.00;101484.59;5095818;28;20035;-77
2022/02/13 03:20:49;;;;;;;23.13;10.20;;;;;;;-0.78;99.86;101476.88;5095404;28;20027;-79
2022/02/13 03:23:16;;;;;;;24.30;10.68;;;;;;;-0.74;99.77;101476.28;5095415;28;20024;-78
2022/02/13 03:25:42;;;;;;;23.55;10.50;;;;;;;-0.81;100.00;101476.69;5095516;28;20426;-78
2022/02/13 03:28:08;;;;;;;25.08;10.60;;;;;;;-0.81;100.00;101476.69;5095114;28;20023;-79
2022/02/13 03:30:34;;;;;;;23.80;10.40;;;;;;;-0.73;99.93;101470.28;5095124;28;20476;-78
2022/02/13 03:33:00;;;;;;;23.60;10.55;;;;;;;-0.74;99.93;101472.78;5095200;28;20074;-78
2022/02/13 03:35:26;;;;;;;24.50;9.82;;;;;;;-0.65;98.73;101468.13;5091067;28;20074;-76
2022/02/13 03:37:51;;;;;;;24.70;10.13;;;;;;;-0.74;99.48;101472.78;5095073;28;20028;-77
2022/02/13 03:40:17;;;;;;;23.33;9.90;;;;;;;-0.58;98.35;101457.31;5095233;28;20481;-77
2022/02/13 03:42:43;;;;;;;24.90;10.05;;;;;;;-0.59;98.35;101452.03;5094803;28;20027;-76
2022/02/13 03:45:09;;;;;;;24.52;10.32;;;;;;;-0.70;98.76;101453.97;5094857;28;20028;-77
2022/02/13 03:47:35;;;;;;;24.38;10.15;;;;;;;-0.71;99.17;101449.59;5095091;28;20031;-77
2022/02/13 03:50:01;;;;;;;23.98;10.27;;;;;;;-0.73;99.08;101446.00;5093482;28;20028;-77
2022/02/13 03:52:27;;;;;;;23.25;10.07;;;;;;;-0.81;99.94;101458.53;5090898;28;20028;-77
2022/02/13 03:54:52;;;;;;;23.35;9.88;;;;;;;-0.86;100.00;101452.16;5094983;28;20367;-76
2022/02/13 03:57:17;;;;;;;24.70;10.02;;;;;;;-0.86;99.92;101448.66;5094675;28;20079;-76
2022/02/13 03:59:43;;;;;;;24.08;10.20;;;;;;;-0.80;99.37;101449.03;5094987;28;20036;-77
2022/02/13 04:02:08;;;;;;;24.00;10.23;;;;;;;-0.68;98.68;101461.84;5094788;28;20020;-77
2022/02/13 04:04:33;;;;;;;24.45;10.35;;;;;;;-0.71;98.74;101447.88;5094538;28;20035;-77
2022/02/13 04:06:58;;;;;;;23.83;10.10;;;;;;;-0.68;98.29;101441.97;5095022;28;20043;-77
2022/02/13 04:09:24;;;;;;;23.33;10.48;;;;;;;-0.82;99.25;101437.66;5094501;28;20059;-77
2022/02/13 04:11:49;;;;;;;23.17;9.88;;;;;;;-0.87;99.43;101434.81;5094449;28;20382;-78
2022/02/13 04:14:14;;;;;;;23.52;9.80;;;;;;;-0.82;99.71;101438.56;5094510;28;20039;-77
2022/02/13 04:16:40;;;;;;;24.13;10.63;;;;;;;-0.90;99.54;101429.44;5094319;28;20106;-77
2022/02/13 04:19:05;;;;;;;24.08;10.45;;;;;;;-0.86;100.00;101414.91;5094263;28;20491;-78
2022/02/13 04:21:30;;;;;;;23.15;10.02;;;;;;;-0.87;100.00;101419.22;5127676;27;20054;-77
2022/02/13 04:23:56;;;;;;;23.48;10.27;;;;;;;-0.85;99.91;101412.41;5094475;28;20132;-77
2022/02/13 04:26:21;;;;;;;24.20;10.27;;;;;;;-0.92;100.00;101405.06;5094605;28;20077;-77
2022/02/13 04:28:46;;;;;;;23.75;10.30;;;;;;;-0.94;100.00;101407.56;5094114;28;20390;-77
2022/02/13 04:31:12;;;;;;;23.92;10.23;;;;;;;-0.95;100.00;101404.88;5093664;28;20537;-76
2022/02/13 04:33:37;;;;;;;23.58;10.05;;;;;;;-0.86;99.94;101397.63;5094381;28;20047;-76
2022/02/13 04:36:03;;;;;;;23.35;9.90;;;;;;;-0.86;100.00;101405.41;5093932;28;20055;-78
2022/02/13 04:38:29;;;;;;;23.15;10.50;;;;;;;-0.90;100.00;101393.97;5093937;28;20489;-76
2022/02/13 04:40:54;;;;;;;24.50;10.68;;;;;;;-1.00;100.00;101385.56;5094074;28;20032;-76
2022/02/13 04:43:19;;;;;;;22.92;9.75;;;;;;;-0.98;100.00;101399.50;5093748;28;20031;-77
2022/02/13 04:45:45;;;;;;;23.42;9.95;;;;;;;-0.99;100.00;101392.50;5093699;28;20126;-77
2022/02/13 04:48:10;;;;;;;23.02;9.93;;;;;;;-1.03;100.00;101391.44;5094193;28;20028;-77
2022/02/13 04:50:35;;;;;;;22.95;10.45;;;;;;;-0.99;100.00;101388.25;5093628;28;20466;-77
2022/02/13 04:53:01;;;;;;;23.42;9.70;;;;;;;-0.95;100.00;101385.00;5093720;28;20028;-77
2022/02/13 04:55:26;;;;;;;23.55;9.90;;;;;;;-0.90;100.00;101393.09;5089753;28;20089;-77
2022/02/13 04:57:52;;;;;;;23.52;10.27;;;;;;;-0.99;100.00;101382.13;5093598;28;20036;-76
2022/02/13 05:00:18;;;;;;;24.02;10.30;;;;;;;-0.93;100.00;101393.78;5093972;28;20020;-77
2022/02/13 05:02:45;;;;;;;23.40;10.07;;;;;;;-0.97;100.00;101386.63;5093503;28;20447;-78
2022/02/13 05:05:11;;;;;;;23.08;9.85;;;;;;;-0.97;100.00;101380.53;5093294;28;20474;-78
2022/02/13 05:07:37;;;;;;;23.60;10.00;;;;;;;-0.83;100.00;101370.97;5093671;28;20028;-78
2022/02/13 05:10:04;;;;;;;23.98;10.40;;;;;;;-0.89;100.00;101374.09;5093557;28;20035;-78
2022/02/13 05:12:29;;;;;;;23.48;10.20;;;;;;;-0.85;100.00;101369.97;5093369;28;20024;-78
2022/02/13 05:14:54;;;;;;;24.58;10.82;;;;;;;-0.93;100.00;101373.03;5093794;28;20027;-78
2022/02/13 05:17:21;;;;;;;23.10;9.93;;;;;;;-1.01;100.00;101368.19;5093067;28;20107;-78
2022/02/13 05:19:47;;;;;;;23.15;9.88;;;;;;;-1.02;100.00;101379.34;5093084;28;20020;-78
2022/02/13 05:22:12;;;;;;;23.95;10.07;;;;;;;-0.88;100.00;101374.16;5093387;28;20359;-78
2022/02/13 05:24:38;;;;;;;24.55;10.45;;;;;;;-0.91;100.00;101375.72;5093117;28;20031;-78
2022/02/13 05:27:04;;;;;;;23.67;10.05;;;;;;;-0.96;100.00;101369.34;5093101;28;20024;-78
2022/02/13 05:29:30;;;;;;;22.60;9.75;;;;;;;-1.02;100.00;101362.09;5093159;28;20152;-78
2022/02/13 05:31:55;;;;;;;24.05;10.52;;;;;;;-0.96;100.00;101354.69;5092903;28;20138;-78
2022/02/13 05:34:21;;;;;;;23.92;10.82;;;;;;;-0.86;100.00;101360.41;5092877;28;20611;-78
2022/02/13 05:36:46;;;;;;;23.77;10.07;;;;;;;-0.94;100.00;101349.56;5093047;28;20100;-78
2022/02/13 05:39:12;;;;;;;23.85;10.65;;;;;;;-0.99;100.00;101346.72;5092472;28;20028;-78
2022/02/13 05:41:37;;;;;;;24.02;10.50;;;;;;;-1.02;100.00;101350.81;5092745;28;20039;-78
2022/02/13 05:44:03;;;;;;;23.52;10.32;;;;;;;-0.84;100.00;101349.31;5091363;28;20044;-78
2022/02/13 05:46:29;;;;;;;24.02;10.52;;;;;;;-0.94;100.00;101340.06;5093069;28;20174;-78
2022/02/13 05:48:55;;;;;;;23.88;10.55;;;;;;;-1.03;100.00;101333.44;5092558;28;20020;-78
2022/02/13 05:51:23;;;;;;;25.02;10.63;;;;;;;-0.98;100.00;101332.03;5092936;28;20116;-79
2022/02/13 05:53:49;;;;;;;22.98;9.93;;;;;;;-1.02;100.00;101335.22;5092692;28;20069;-79
2022/02/13 05:56:14;;;;;;;24.63;10.68;;;;;;;-0.98;100.00;101337.22;5092779;28;20067;-81
2022/02/13 05:58:40;;;;;;;25.52;10.68;;;;;;;-0.88;100.00;101332.63;5089078;28;20080;-79
2022/02/13 06:01:06;;;;;;;24.27;10.55;;;;;;;-0.81;100.00;101322.63;5087959;28;20032;-79
2022/02/13 06:03:34;;;;;;;23.17;10.00;;;;;;;-0.86;100.00;101324.94;5089937;28;20053;-77
2022/02/13 06:05:59;;;;;;;23.33;10.32;;;;;;;-0.86;100.00;101309.34;5090530;28;20073;-79
2022/02/13 06:08:24;;;;;;;23.65;10.45;;;;;;;-0.74;100.00;101314.38;5090339;28;20430;-77
2022/02/13 06:10:50;;;;;;;24.83;10.57;;;;;;;-0.72;99.95;101321.44;5090419;28;20118;-75
2022/02/13 06:13:15;;;;;;;23.75;10.75;;;;;;;-0.71;99.98;101311.97;5088120;28;20039;-78
2022/02/13 06:15:40;;;;;;;24.15;10.23;;;;;;;-0.63;99.26;101300.28;5088913;28;20093;-78
2022/02/13 06:18:06;;;;;;;22.75;10.73;;;;;;;-0.61;99.42;101297.78;5089810;28;20061;-80
2022/02/13 06:20:31;;;;;;;23.83;10.40;;;;;;;-0.64;99.57;101293.34;5089793;28;20032;-78
2022/02/13 06:22:56;;;;;;;23.52;10.10;;;;;;;-0.64;99.59;101297.63;5089482;28;20028;-82
2022/02/13 06:25:22;;;;;;;23.70;10.82;;;;;;;-0.68;99.75;101293.03;5090717;28;20103;-79
2022/02/13 06:27:48;;;;;;;23.73;10.65;;;;;;;-0.78;100.00;101287.34;5090082;28;20482;-82
2022/02/13 06:30:13;;;;;;;24.02;10.55;;;;;;;-0.82;100.00;101287.09;5089817;28;20036;-75
2022/02/13 06:32:39;;;;;;;24.70;10.77;;;;;;;-0.83;100.00;101275.81;5089622;28;20056;-77
2022/02/13 06:35:04;;;;;;;23.40;10.52;;;;;;;-0.83;100.00;101283.59;5087510;28;20061;-76
2022/02/13 06:37:31;;;;;;;22.95;10.35;;;;;;;-0.78;100.00;101282.16;5089755;28;20060;-77
2022/02/13 06:39:59;;;;;;;23.30;10.50;;;;;;;-0.85;100.00;101276.53;5090389;28;20040;-79
2022/02/13 06:42:25;;;;;;;22.95;10.50;;;;;;;-0.72;100.00;101281.59;5088461;28;20036;-75
2022/02/13 06:44:51;;;;;;;23.17;10.45;;;;;;;-0.77;100.00;101288.22;5089183;28;20032;-76
2022/02/13 06:47:17;;;;;;;24.38;10.52;;;;;;;-0.71;100.00;101280.81;5089540;28;20044;-75
2022/02/13 06:49:42;;;;;;;23.80;10.73;;;;;;;-0.71;100.00;101292.06;5089584;28;20043;-75
2022/02/13 06:52:07;;;;;;;22.73;10.77;;;;;;;-0.61;100.00;101284.78;5093059;28;20066;-75
2022/02/13 06:54:33;;;;;;;23.75;10.48;;;;;;;-0.56;100.00;101276.47;5092203;28;20107;-75
2022/02/13 06:56:58;;;;;;;23.63;11.20;;;;;;;-0.62;100.00;101270.94;5091865;28;20479;-75
2022/02/13 06:59:24;;;;;;;23.65;10.57;;;;;;;-0.65;100.00;101270.75;5092248;28;20085;-75
2022/02/13 07:01:50;;;;;;;24.52;10.90;;;;;;;-0.66;100.00;101270.69;5093288;28;20106;-75
2022/02/13 07:04:15;;;;;;;22.17;10.15;;;;;;;-0.65;100.00;101273.34;5093674;28;20726;-74
2022/02/13 07:06:41;;;;;;;22.55;9.98;;;;;;;-0.60;100.00;101271.91;5093219;28;20119;-76
2022/02/13 07:09:07;;;;;;;23.35;10.00;;;;;;;-0.49;100.00;101264.72;5093529;28;20378;-76
2022/02/13 07:11:32;;;;;;;23.00;10.48;;;;;;;-0.29;98.33;101249.31;5091722;28;20475;-74
2022/02/13 07:13:57;;;;;;;23.40;10.32;;;;;;;-0.24;98.21;101263.47;5093299;28;20028;-76
2022/02/13 07:16:23;;;;;;;22.73;9.88;;;;;;;-0.21;97.85;101250.66;5093030;28;20123;-76
2022/02/13 07:18:48;;;;;;;23.70;10.30;;;;;;;-0.11;97.01;101252.06;5093256;28;20401;-75
2022/02/13 07:21:13;;;;;;;22.35;10.00;;;;;;;-0.10;96.99;101253.81;5093011;28;20630;-74
2022/02/13 07:23:39;;;;;;;23.05;10.77;;;;;;;-0.02;96.67;101253.41;5092406;28;20020;-76
2022/02/13 07:26:04;;;;;;;23.48;10.20;;;;;;;0.04;96.12;101249.38;5091283;28;20043;-75
2022/02/13 07:31:14;;;;;;;22.85;9.35;;;;;;;0.23;95.19;101253.84;5091732;28;20085;-78
2022/02/13 07:33:39;;;;;;;22.35;9.68;;;;;;;0.36;94.30;101253.66;5094485;28;20379;-82
2022/02/13 07:36:05;;;;;;;23.67;10.23;;;;;;;0.52;93.13;101260.56;5093946;28;20055;-78
2022/02/13 07:38:30;;;;;;;21.95;9.52;;;;;;;0.57;92.80;101248.69;5095250;28;20031;-78
2022/02/13 07:40:56;;;;;;;22.25;9.82;;;;;;;0.67;92.06;101248.34;5095116;28;20024;-78
2022/02/13 07:43:21;;;;;;;23.15;9.88;;;;;;;0.72;91.68;101252.91;5093759;28;20043;-79
2022/02/13 07:45:46;;;;;;;22.63;9.60;;;;;;;0.80;91.42;101256.75;5094967;28;20463;-79
2022/02/13 07:48:12;;;;;;;22.90;9.80;;;;;;;0.88;90.36;101252.84;5093158;28;20044;-81
2022/02/13 07:50:38;;;;;;;22.55;9.95;;;;;;;0.89;90.43;101245.91;5093278;28;20036;-80
2022/02/13 07:53:03;;;;;;;21.83;9.70;;;;;;;0.95;90.04;101247.13;5094828;28;20024;-77
2022/02/13 07:55:31;;;;;;;22.85;10.05;;;;;;;1.04;89.66;101246.69;5094911;28;20043;-78
2022/02/13 07:57:57;;;;;;;21.75;9.45;;;;;;;1.12;89.23;101241.84;5093222;28;20040;-78
2022/02/13 08:00:22;;;;;;;22.48;9.63;;;;;;;1.18;88.76;101247.34;5094736;28;20027;-79
2022/02/13 08:02:47;;;;;;;23.13;10.00;;;;;;;1.20;88.39;101246.63;5094188;28;20074;-78
2022/02/13 08:05:13;;;;;;;23.05;10.13;;;;;;;1.33;86.88;101245.50;5095027;28;20036;-78
2022/02/13 08:07:48;;;;;;;21.85;9.70;;;;;;;1.38;87.48;101245.72;5094439;28;20035;-78
2022/02/13 08:10:17;;;;;;;22.38;10.00;;;;;;;1.39;87.61;101250.13;5094539;28;20055;-78
2022/02/13 08:12:44;;;;;;;23.20;10.15;;;;;;;1.45;86.55;101254.75;5094683;28;20112;-81
2022/02/13 08:15:09;;;;;;;22.55;10.10;;;;;;;1.49;86.69;101248.88;5094671;28;20113;-78
2022/02/13 08:17:34;;;;;;;22.30;9.70;;;;;;;1.50;86.64;101242.81;5094095;28;20526;-80
2022/02/13 08:20:03;;;;;;;24.08;10.18;;;;;;;1.60;86.73;101247.63;5094455;28;20024;-78
2022/02/13 08:22:28;;;;;;;23.60;10.60;;;;;;;1.63;86.94;101239.97;5094372;28;20065;-79
2022/02/13 08:24:53;;;;;;;21.60;9.70;;;;;;;1.73;86.65;101241.28;5094167;28;20016;-81
2022/02/13 08:27:19;;;;;;;22.85;9.98;;;;;;;1.82;86.31;101236.53;5090129;28;20388;-79
2022/02/13 08:29:45;;;;;;;22.50;9.43;;;;;;;1.91;85.37;101239.53;5094002;28;20055;-77
2022/02/13 08:32:10;;;;;;;22.92;9.35;;;;;;;1.95;85.56;101230.13;5093930;28;20123;-77
2022/02/13 08:34:36;;;;;;;22.17;9.63;;;;;;;2.14;84.04;101225.75;5094529;28;20364;-77
2022/02/13 08:37:01;;;;;;;21.63;8.82;;;;;;;2.26;82.98;101242.84;5093801;28;20404;-77
2022/02/13 08:39:26;;;;;;;22.45;9.50;;;;;;;2.34;82.77;101232.72;5093994;28;20535;-78
2022/02/13 08:41:52;;;;;;;22.30;9.50;;;;;;;2.43;82.71;101225.31;5093924;28;20024;-77
2022/02/13 08:44:17;;;;;;;22.55;9.73;;;;;;;2.46;82.63;101219.31;5093909;28;20035;-78
2022/02/13 08:46:42;;;;;;;22.48;10.10;;;;;;;2.57;81.36;101219.81;5093898;28;20099;-77
2022/02/13 08:49:08;;;;;;;22.33;9.70;;;;;;;2.56;81.17;101225.84;5093752;28;20103;-77
2022/02/13 08:51:34;;;;;;;22.55;10.60;;;;;;;2.63;81.07;101214.84;5093433;28;20374;-79
2022/02/13 08:53:59;;;;;;;22.92;10.00;;;;;;;2.69;80.65;101214.22;5092439;28;20040;-77
2022/02/13 08:56:25;;;;;;;22.23;10.15;;;;;;;2.75;80.75;101220.59;5093875;28;20478;-77
2022/02/13 08:58:53;;;;;;;22.70;9.73;;;;;;;2.82;79.79;101233.91;5093714;28;20032;-77
2022/02/13 09:01:18;;;;;;;21.35;9.40;;;;;;;2.86;79.36;101213.19;5093692;28;20039;-77
2022/02/13 09:03:44;;;;;;;21.23;9.38;;;;;;;2.93;79.63;101206.53;5092134;28;20028;-78
2022/02/13 09:06:09;;;;;;;22.13;9.98;;;;;;;3.04;79.47;101207.81;5093379;28;20039;-78
2022/02/13 09:08:34;;;;;;;21.65;9.32;;;;;;;3.15;77.28;101195.22;5093039;28;20032;-79
2022/02/13 09:11:00;;;;;;;22.27;9.45;;;;;;;3.16;78.25;101185.66;5092999;28;20031;-77
2022/02/13 09:13:25;;;;;;;21.58;8.98;;;;;;;3.37;75.91;101191.72;5092236;28;20491;-77
2022/02/13 09:15:51;;;;;;;21.50;8.80;;;;;;;3.44;76.48;101187.63;5093451;28;20601;-77
2022/02/13 09:18:17;;;;;;;21.83;9.00;;;;;;;3.63;75.04;101181.38;5093257;28;20035;-78
2022/02/13 09:20:45;;;;;;;22.15;9.55;;;;;;;3.74;74.26;101171.31;5093313;28;20035;-77
2022/02/13 09:23:13;;;;;;;21.15;8.77;;;;;;;3.79;73.91;101161.94;5093263;28;20103;-77
2022/02/13 09:25:41;;;;;;;20.90;8.43;;;;;;;3.93;72.95;101151.97;5093310;28;20054;-77
2022/02/13 09:28:07;;;;;;;21.85;8.70;;;;;;;3.96;72.56;101145.13;5093065;28;20378;-78
2022/02/13 09:30:33;;;;;;;21.10;8.45;;;;;;;4.08;72.41;101139.44;5093334;28;20136;-77
2022/02/13 09:32:58;;;;;;;22.10;9.07;;;;;;;4.28;71.34;101140.16;5092866;28;20036;-77
2022/02/13 09:35:23;;;;;;;20.90;8.50;;;;;;;4.28;71.45;101136.63;5092951;28;20039;-78
2022/02/13 09:37:50;;;;;;;20.52;8.30;;;;;;;4.43;71.05;101139.78;5092937;28;20486;-77
2022/02/13 09:40:17;;;;;;;21.13;8.57;;;;;;;4.47;69.96;101127.66;5092900;28;20024;-77
2022/02/13 09:42:44;;;;;;;21.95;8.80;;;;;;;4.48;69.94;101127.72;5092728;28;20021;-78
2022/02/13 09:45:10;;;;;;;21.15;8.43;;;;;;;4.61;69.57;101112.44;5092952;28;20060;-77
2022/02/13 09:47:37;;;;;;;21.02;8.63;;;;;;;4.65;69.72;101135.28;5092982;28;20060;-78
2022/02/13 09:50:03;;;;;;;20.95;8.30;;;;;;;4.75;68.61;101126.88;5092635;28;20032;-77
2022/02/13 09:52:28;;;;;;;21.52;8.82;;;;;;;4.88;69.61;101122.94;5092719;28;20111;-77
2022/02/13 09:54:53;;;;;;;21.13;8.32;;;;;;;5.04;67.90;101124.31;5092900;28;20044;-78
2022/02/13 10:00:04;;;;;;;21.60;8.43;;;;;;;5.14;67.29;101104.50;5089089;28;20448;-77
2022/02/13 10:02:35;;;;;;;20.95;8.63;;;;;;;5.20;67.79;101100.34;5093254;28;20020;-77
2022/02/13 10:05:01;;;;;;;20.58;8.25;;;;;;;5.29;66.88;101111.94;5092836;28;20027;-78
2022/02/13 10:07:27;;;;;;;20.25;7.80;;;;;;;5.40;66.18;101082.59;5092586;28;20493;-77
2022/02/13 10:09:59;;;;;;;20.55;8.07;;;;;;;5.52;66.01;101092.53;5092641;28;20063;-78
2022/02/13 10:12:42;;;;;;;20.98;8.18;;;;;;;5.61;65.75;101098.88;5092373;28;20077;-77
2022/02/13 10:15:20;;;;;;;21.13;8.60;;;;;;;5.65;66.21;101083.28;5089468;28;20020;-77
2022/02/13 10:18:06;;;;;;;20.55;8.00;;;;;;;5.78;65.83;101066.13;5092355;28;20145;-78
2022/02/13 10:20:36;;;;;;;20.90;8.52;;;;;;;5.83;65.54;101077.66;5088610;28;20025;-78
2022/02/13 10:23:04;;;;;;;20.67;8.20;;;;;;;6.07;64.31;101069.59;5090846;28;20036;-78
2022/02/13 10:25:29;;;;;;;20.67;8.43;;;;;;;6.23;63.59;101065.63;5094946;28;20082;-78
2022/02/13 10:27:54;;;;;;;20.00;8.15;;;;;;;6.41;64.01;101056.44;5096788;28;20047;-78
2022/02/13 10:30:37;;;;;;;20.77;8.02;;;;;;;6.75;63.92;101060.75;5096241;28;20538;-78
2022/02/13 10:33:14;;;;;;;20.67;8.18;;;;;;;6.85;62.26;101053.97;5092583;28;20044;-78
2022/02/13 10:35:39;;;;;;;20.83;8.40;;;;;;;7.05;61.97;101066.66;5093483;28;20031;-78
2022/02/13 10:38:08;;;;;;;21.25;8.55;;;;;;;7.06;61.44;101057.94;5096360;28;20028;-78
2022/02/13 10:40:33;;;;;;;19.70;7.65;;;;;;;7.03;61.13;101056.13;5092598;28;20026;-78
2022/02/13 10:43:04;;;;;;;21.35;8.35;;;;;;;6.96;61.10;101063.00;5096463;28;20441;-78
2022/02/13 10:45:31;;;;;;;20.55;8.05;;;;;;;6.83;62.10;101050.44;5096080;28;20478;-77
2022/02/13 10:48:04;;;;;;;20.90;8.13;;;;;;;6.90;61.61;101057.63;5095838;28;20028;-78
2022/02/13 10:50:30;;;;;;;;;;;;;;;7.33;62.08;101057.66;5096413;28;20027;-78
2022/02/13 10:52:59;;;;;;;20.42;8.30;;;;;;;7.55;60.43;101064.25;5096598;28;20350;-77
2022/02/13 10:55:25;;;;;;;20.20;7.85;;;;;;;7.71;59.30;101069.81;5095778;28;20027;-78
2022/02/13 10:57:51;;;;;;;19.80;7.50;;;;;;;7.74;58.38;101054.09;5096060;28;20028;-77
2022/02/13 11:00:17;;;;;;;21.08;8.30;;;;;;;7.76;59.57;101049.72;5096031;28;20024;-77
2022/02/13 11:02:49;;;;;;;19.40;7.63;;;;;;;7.88;58.44;101051.69;5095820;28;20032;-81
2022/02/13 11:05:16;;;;;;;20.70;8.30;;;;;;;7.91;58.98;101044.75;5095759;28;20020;-80
2022/02/13 11:07:45;;;;;;;20.65;8.27;;;;;;;8.36;58.71;101024.47;5096223;28;20490;-80
2022/02/13 11:10:25;;;;;;;20.60;8.20;;;;;;;8.92;57.27;101020.94;5095385;28;20064;-81
2022/02/13 11:12:54;;;;;;;20.13;7.93;;;;;;;8.87;56.54;101001.56;5095770;28;20024;-81